Time;durP1;ratioP1;P1;durP2;ratioP2;P2;SDS_P1;SDS_P2;PMS_P1;PMS_P2;Temp;Humidity;BMP_temperature;BMP_pressure;BME280_temperature;BME280_humidity;BME280_pressure;Samples;Min_cycle;Max_cycle;Signal;HPM_P1;HPM_P2
2023/12/27 00:01:09;;;;;;;8.23;3.40;;;;;;;7.55;100.00;99499.06;5084895;28;20032;-81
2023/12/27 00:03:34;;;;;;;7.93;4.10;;;;;;;7.58;100.00;99501.41;5076160;28;20516;-81
2023/12/27 00:05:59;;;;;;;9.88;3.65;;;;;;;7.55;100.00;99501.75;5067703;28;20074;-82
2023/12/27 00:08:24;;;;;;;8.10;3.30;;;;;;;7.64;100.00;99517.72;5073899;28;20029;-81
2023/12/27 00:10:50;;;;;;;8.52;4.07;;;;;;;7.59;100.00;99506.63;5063088;28;20039;-81
2023/12/27 00:13:15;;;;;;;8.65;4.07;;;;;;;7.39;100.00;99484.56;5072186;28;20035;-81
2023/12/27 00:15:45;;;;;;;6.53;3.85;;;;;;;7.43;100.00;99485.91;5073981;28;20035;-81
2023/12/27 00:18:10;;;;;;;9.30;4.53;;;;;;;7.34;100.00;99475.31;5080061;28;20388;-81
2023/12/27 00:20:35;;;;;;;9.88;4.53;;;;;;;7.40;100.00;99478.16;5067215;28;20024;-80
2023/12/27 00:23:01;;;;;;;8.60;4.10;;;;;;;7.35;100.00;99463.53;5067580;28;20032;-81
2023/12/27 00:25:26;;;;;;;7.57;4.15;;;;;;;7.54;100.00;99492.81;5063256;28;20028;-80
2023/12/27 00:27:51;;;;;;;6.30;3.83;;;;;;;7.42;100.00;99468.09;5070511;28;20084;-81
2023/12/27 00:30:18;;;;;;;7.30;3.67;;;;;;;7.57;100.00;99500.59;5103318;28;20012;-79
2023/12/27 00:32:43;;;;;;;6.07;3.50;;;;;;;7.54;100.00;99508.97;5078070;28;20052;-79
2023/12/27 00:35:08;;;;;;;6.68;3.60;;;;;;;7.50;100.00;99512.19;5072425;28;20024;-79
2023/12/27 00:37:34;;;;;;;5.15;2.83;;;;;;;7.45;100.00;99505.44;5084389;28;20032;-80
2023/12/27 00:39:59;;;;;;;4.60;3.17;;;;;;;7.42;100.00;99503.09;5071940;28;20040;-81
2023/12/27 00:42:24;;;;;;;8.18;3.80;;;;;;;7.42;100.00;99516.53;5106582;28;20067;-78
2023/12/27 00:44:51;;;;;;;7.28;3.55;;;;;;;7.23;100.00;99492.59;5080366;28;20099;-79
2023/12/27 00:47:16;;;;;;;5.60;3.42;;;;;;;7.11;100.00;99480.47;5069011;28;20050;-79
2023/12/27 00:49:41;;;;;;;6.07;3.70;;;;;;;7.21;100.00;99492.78;5063782;28;20087;-79
2023/12/27 00:52:07;;;;;;;9.68;4.10;;;;;;;7.38;100.00;99503.56;5075315;28;20024;-81
2023/12/27 00:54:32;;;;;;;6.93;4.00;;;;;;;7.35;100.00;99501.22;5082861;28;20469;-79
2023/12/27 00:56:58;;;;;;;8.20;4.70;;;;;;;7.24;100.00;99495.13;5072989;28;20020;-79
2023/12/27 00:59:23;;;;;;;10.90;5.53;;;;;;;7.29;100.00;99499.19;5058209;28;20111;-79
2023/12/27 01:01:48;;;;;;;9.98;5.85;;;;;;;7.29;100.00;99505.41;5069332;28;20470;-82
2023/12/27 01:04:14;;;;;;;9.13;5.72;;;;;;;7.19;100.00;99489.41;5090738;28;20469;-79
2023/12/27 01:06:39;;;;;;;16.10;5.88;;;;;;;6.98;100.00;99459.41;5066043;28;20024;-80
2023/12/27 01:09:05;;;;;;;14.50;5.40;;;;;;;7.02;100.00;99467.00;5083332;28;20016;-80
2023/12/27 01:11:30;;;;;;;13.60;5.93;;;;;;;7.06;100.00;99491.72;5054667;28;20106;-80
2023/12/27 01:13:55;;;;;;;10.15;5.38;;;;;;;7.05;100.00;99492.75;5074555;28;20393;-80
2023/12/27 01:16:21;;;;;;;11.32;5.65;;;;;;;6.94;100.00;99482.25;5062784;28;20025;-79
2023/12/27 01:18:46;;;;;;;9.77;5.93;;;;;;;6.92;100.00;99484.31;5087666;28;20054;-80
2023/12/27 01:21:13;;;;;;;12.00;5.55;;;;;;;6.91;100.00;99486.13;5069869;28;20020;-80
2023/12/27 01:23:39;;;;;;;7.65;4.97;;;;;;;6.91;100.00;99490.66;5083509;28;20051;-80
2023/12/27 01:26:04;;;;;;;13.55;5.72;;;;;;;6.74;100.00;99469.09;5065465;28;20029;-80
2023/12/27 01:28:30;;;;;;;10.10;6.15;;;;;;;6.94;100.00;99501.09;5065838;28;20073;-80
2023/12/27 01:30:55;;;;;;;12.27;5.90;;;;;;;6.87;100.00;99490.16;5087705;28;20024;-80
2023/12/27 01:33:21;;;;;;;12.23;6.15;;;;;;;6.74;100.00;99479.84;5023822;28;1258384;-80
2023/12/27 01:35:46;;;;;;;17.63;6.60;;;;;;;6.76;100.00;99493.16;5085388;28;20033;-80
2023/12/27 01:38:11;;;;;;;18.65;7.22;;;;;;;6.75;100.00;99494.97;5095504;28;20020;-80
2023/12/27 01:40:36;;;;;;;17.52;7.28;;;;;;;6.77;100.00;99501.03;5041425;22;20041;-79
2023/12/27 01:43:02;;;;;;;15.30;7.35;;;;;;;6.74;100.00;99496.00;5019481;28;20520;-79
2023/12/27 01:45:27;;;;;;;13.90;7.05;;;;;;;6.83;100.00;99496.03;5022980;28;20026;-79
2023/12/27 01:47:53;;;;;;;15.75;6.68;;;;;;;6.80;100.00;99481.88;5044240;28;20397;-79
2023/12/27 01:50:19;;;;;;;15.98;6.63;;;;;;;6.86;100.00;99498.38;5044508;28;20052;-79
2023/12/27 01:52:45;;;;;;;12.85;5.90;;;;;;;6.94;100.00;99506.47;5052207;28;20112;-79
2023/12/27 01:55:11;;;;;;;9.68;5.45;;;;;;;6.83;100.00;99471.81;5043185;28;20808;-79
2023/12/27 01:57:40;;;;;;;14.20;5.65;;;;;;;6.88;100.00;99497.22;5036062;28;20550;-79
2023/12/27 02:00:07;;;;;;;11.63;5.75;;;;;;;6.91;100.00;99506.81;5042621;28;20480;-79
2023/12/27 02:02:33;;;;;;;14.18;5.20;;;;;;;6.87;100.00;99509.00;5076683;28;20023;-79
2023/12/27 02:04:58;;;;;;;9.68;4.80;;;;;;;6.89;100.00;99519.56;5059201;28;20033;-79
2023/12/27 02:07:24;;;;;;;12.13;5.78;;;;;;;6.91;100.00;99526.47;5053676;28;20097;-79
2023/12/27 02:09:50;;;;;;;13.73;5.00;;;;;;;6.91;100.00;99522.94;5058092;28;20044;-79
2023/12/27 02:12:24;;;;;;;11.85;4.95;;;;;;;6.79;100.00;99495.50;5045418;28;20017;-79
2023/12/27 02:14:49;;;;;;;8.13;5.18;;;;;;;6.91;100.00;99520.25;5075854;28;20028;-79
2023/12/27 02:17:15;;;;;;;9.00;5.93;;;;;;;6.86;100.00;99509.97;5046064;28;20073;-79
2023/12/27 02:19:40;;;;;;;9.48;5.50;;;;;;;6.90;100.00;99502.44;5064450;28;20074;-79
2023/12/27 02:22:06;;;;;;;11.90;5.88;;;;;;;7.02;100.00;99514.56;5041793;28;20389;-79
2023/12/27 02:24:34;;;;;;;9.05;5.45;;;;;;;6.95;100.00;99492.88;5052711;28;20028;-79
2023/12/27 02:27:00;;;;;;;13.48;5.50;;;;;;;7.01;100.00;99502.97;5043858;28;20094;-80
2023/12/27 02:29:25;;;;;;;9.30;5.63;;;;;;;7.00;100.00;99485.16;5039011;28;20470;-79
2023/12/27 02:31:52;;;;;;;7.95;4.65;;;;;;;6.94;100.00;99480.44;5048358;28;20028;-80
2023/12/27 02:34:18;;;;;;;10.35;6.03;;;;;;;7.03;100.00;99492.06;5038471;28;20025;-79
2023/12/27 02:36:43;;;;;;;10.88;5.65;;;;;;;7.01;100.00;99492.22;5039295;28;20382;-82
2023/12/27 02:39:09;;;;;;;11.60;6.45;;;;;;;6.91;100.00;99469.16;5062425;28;20028;-79
2023/12/27 02:41:34;;;;;;;11.68;6.60;;;;;;;7.03;100.00;99489.38;5034517;28;20036;-79
2023/12/27 02:43:59;;;;;;;13.02;6.78;;;;;;;6.96;100.00;99480.25;5048464;28;20021;-80
2023/12/27 02:46:24;;;;;;;9.80;5.63;;;;;;;6.96;100.00;99486.47;5046433;28;20389;-79
2023/12/27 02:48:50;;;;;;;11.88;5.78;;;;;;;6.99;100.00;99491.53;5037829;28;20531;-79
2023/12/27 02:51:15;;;;;;;14.00;5.68;;;;;;;6.88;100.00;99469.47;5033930;28;20025;-79
2023/12/27 02:53:40;;;;;;;12.20;5.30;;;;;;;6.94;100.00;99476.88;5037821;28;20016;-79
2023/12/27 02:56:08;;;;;;;14.77;5.47;;;;;;;7.02;100.00;99490.34;5034086;28;20029;-79
2023/12/27 02:58:33;;;;;;;11.60;5.22;;;;;;;7.03;100.00;99475.91;5036642;28;20021;-79
2023/12/27 03:01:00;;;;;;;10.55;5.13;;;;;;;6.99;100.00;99450.34;5053947;28;20032;-79
2023/12/27 03:03:25;;;;;;;12.20;4.90;;;;;;;7.05;100.00;99459.59;5053663;28;20027;-80
2023/12/27 03:05:50;;;;;;;12.27;5.15;;;;;;;7.09;100.00;99464.50;5043778;28;20103;-79
2023/12/27 03:08:15;;;;;;;7.95;4.95;;;;;;;7.05;100.00;99463.16;5062139;28;20036;-79
2023/12/27 03:10:41;;;;;;;11.10;5.30;;;;;;;7.06;100.00;99454.06;5062708;28;20453;-79
2023/12/27 03:13:06;;;;;;;14.52;5.00;;;;;;;6.95;100.00;99433.69;5064077;28;20032;-80
2023/12/27 03:15:31;;;;;;;7.35;4.80;;;;;;;7.12;100.00;99464.16;5051696;28;20017;-80
2023/12/27 03:17:57;;;;;;;10.68;5.55;;;;;;;7.10;100.00;99462.63;5059374;28;20059;-80
2023/12/27 03:20:22;;;;;;;8.75;4.65;;;;;;;7.07;100.00;99458.41;5058075;28;20393;-80
2023/12/27 03:22:47;;;;;;;11.98;5.22;;;;;;;7.06;100.00;99455.91;5042165;28;20498;-80
2023/12/27 03:25:12;;;;;;;8.63;4.55;;;;;;;6.99;100.00;99445.78;5051195;28;20546;-80
2023/12/27 03:27:39;;;;;;;8.70;4.78;;;;;;;6.86;100.00;99429.28;5065897;28;20095;-80
2023/12/27 03:30:05;;;;;;;7.97;5.18;;;;;;;6.93;100.00;99441.06;5068502;28;20033;-80
2023/12/27 03:32:30;;;;;;;9.18;4.55;;;;;;;6.84;100.00;99430.44;5051669;28;20043;-80
2023/12/27 03:34:55;;;;;;;11.43;4.80;;;;;;;6.85;100.00;99433.00;5040589;28;20025;-80
2023/12/27 03:37:21;;;;;;;8.93;4.88;;;;;;;6.79;100.00;99436.34;5056227;28;20020;-80
2023/12/27 03:39:50;;;;;;;11.25;5.35;;;;;;;6.89;100.00;99447.81;5049859;28;20044;-80
2023/12/27 03:42:19;;;;;;;;;;;;;;;6.92;100.00;99454.72;5072298;28;20078;-79
2023/12/27 03:44:44;;;;;;;11.95;5.28;;;;;;;6.88;100.00;99448.78;5045921;28;19913;-79
2023/12/27 03:47:09;;;;;;;13.23;6.70;;;;;;;6.59;100.00;99416.94;5043198;28;20071;-79
2023/12/27 03:49:35;;;;;;;10.63;6.57;;;;;;;6.45;100.00;99406.81;5039818;28;20167;-79
2023/12/27 03:52:00;;;;;;;15.55;8.60;;;;;;;6.48;100.00;99431.53;5049132;28;20366;-79
2023/12/27 03:54:25;;;;;;;12.38;7.18;;;;;;;6.53;100.00;99433.72;5042371;28;20025;-79
2023/12/27 03:56:50;;;;;;;14.85;7.70;;;;;;;6.55;100.00;99447.84;5035569;28;20075;-79
2023/12/27 03:59:16;;;;;;;12.48;7.07;;;;;;;6.57;100.00;99440.44;5054605;28;20028;-79
2023/12/27 04:01:41;;;;;;;15.48;7.45;;;;;;;6.40;100.00;99414.53;5045760;28;20048;-79
2023/12/27 04:04:07;;;;;;;15.18;7.32;;;;;;;6.51;100.00;99435.72;5050553;28;20036;-79
2023/12/27 04:06:32;;;;;;;16.70;7.10;;;;;;;6.47;100.00;99428.97;5040420;28;20837;-79
2023/12/27 04:08:58;;;;;;;12.00;6.78;;;;;;;6.55;100.00;99423.66;5060208;28;20021;-79
2023/12/27 04:11:23;;;;;;;17.70;7.35;;;;;;;6.56;100.00;99434.25;5061917;28;20072;-79
2023/12/27 04:13:48;;;;;;;14.60;7.32;;;;;;;6.57;100.00;99424.31;5043859;28;20021;-79
2023/12/27 04:16:13;;;;;;;18.25;7.47;;;;;;;6.63;100.00;99430.88;5048238;28;20112;-80
2023/12/27 04:18:39;;;;;;;14.18;7.50;;;;;;;6.56;100.00;99415.41;5065045;28;20032;-79
2023/12/27 04:21:04;;;;;;;18.83;7.30;;;;;;;6.52;100.00;99399.78;5040645;28;20504;-79
2023/12/27 04:23:30;;;;;;;18.88;8.02;;;;;;;6.70;100.00;99434.63;5030383;28;20032;-79
2023/12/27 04:25:56;;;;;;;14.70;7.57;;;;;;;6.63;100.00;99412.94;5034023;28;20132;-79
2023/12/27 04:28:21;;;;;;;16.75;7.07;;;;;;;6.70;100.00;99419.31;5040998;28;20031;-79
2023/12/27 04:30:47;;;;;;;18.83;7.38;;;;;;;6.74;100.00;99411.78;5044490;28;20040;-80
2023/12/27 04:33:12;;;;;;;16.95;6.47;;;;;;;6.64;100.00;99398.47;5040947;28;20055;-79
2023/12/27 04:35:37;;;;;;;20.27;6.88;;;;;;;6.77;100.00;99417.66;5055476;28;20029;-81
2023/12/27 04:38:03;;;;;;;10.30;6.13;;;;;;;6.85;100.00;99414.16;5056369;28;20032;-79
2023/12/27 04:40:28;;;;;;;12.40;6.30;;;;;;;6.75;100.00;99400.84;5050488;28;20530;-79
2023/12/27 04:42:54;;;;;;;12.73;5.82;;;;;;;6.73;100.00;99385.88;5040490;28;20032;-81
2023/12/27 04:45:19;;;;;;;10.95;5.40;;;;;;;6.63;100.00;99386.06;5037797;28;20331;-79
2023/12/27 04:47:45;;;;;;;10.93;5.72;;;;;;;6.63;100.00;99396.81;5055677;28;20021;-79
2023/12/27 04:50:10;;;;;;;11.50;5.57;;;;;;;6.47;100.00;99397.59;5035640;28;20024;-80
2023/12/27 04:52:35;;;;;;;12.77;5.80;;;;;;;6.37;100.00;99396.88;5036522;28;20025;-80
2023/12/27 04:55:01;;;;;;;10.75;5.35;;;;;;;6.28;100.00;99390.59;5040760;28;20025;-80
2023/12/27 04:57:26;;;;;;;14.55;6.25;;;;;;;6.26;100.00;99375.66;5037761;28;20031;-79
2023/12/27 04:59:51;;;;;;;13.35;6.22;;;;;;;6.27;100.00;99388.94;5041709;28;20367;-77
2023/12/27 05:02:17;;;;;;;13.30;6.43;;;;;;;6.43;100.00;99406.97;5033871;28;20017;-79
2023/12/27 05:04:42;;;;;;;10.15;6.13;;;;;;;6.36;100.00;99414.81;5026881;28;20025;-79
2023/12/27 05:07:08;;;;;;;11.30;6.00;;;;;;;6.34;100.00;99418.69;5032277;28;20080;-77
2023/12/27 05:09:34;;;;;;;18.13;8.05;;;;;;;6.46;100.00;99425.47;5048615;23;20580;-62
2023/12/27 05:11:59;;;;;;;11.85;6.07;;;;;;;6.54;100.00;99428.19;5078328;28;20024;-62
2023/12/27 05:14:25;;;;;;;13.13;7.43;;;;;;;6.60;100.00;99424.00;5083082;28;20016;-62
2023/12/27 05:16:54;;;;;;;14.00;7.38;;;;;;;6.63;100.00;99420.13;5089228;28;20024;-62
2023/12/27 05:19:20;;;;;;;13.48;7.32;;;;;;;6.70;100.00;99423.88;5093183;28;20030;-62
2023/12/27 05:21:45;;;;;;;13.02;6.82;;;;;;;6.67;100.00;99419.66;5075185;28;20024;-62
2023/12/27 05:24:14;;;;;;;19.45;7.68;;;;;;;6.71;100.00;99409.44;5080976;28;20020;-62
2023/12/27 05:26:39;;;;;;;11.23;6.82;;;;;;;6.71;100.00;99420.19;5101288;28;20466;-62
2023/12/27 05:29:04;;;;;;;13.13;6.78;;;;;;;6.84;100.00;99420.56;5091237;28;20040;-63
2023/12/27 05:31:30;;;;;;;13.18;7.10;;;;;;;6.87;100.00;99424.78;5088705;28;20020;-62
2023/12/27 05:33:55;;;;;;;13.40;6.85;;;;;;;6.86;100.00;99412.31;5094754;28;20028;-63
2023/12/27 05:36:21;;;;;;;11.88;6.00;;;;;;;6.87;100.00;99425.59;5109513;28;20098;-62
2023/12/27 05:38:46;;;;;;;13.38;7.13;;;;;;;6.85;100.00;99416.03;5117072;28;20060;-63
2023/12/27 05:41:12;;;;;;;11.10;6.53;;;;;;;6.93;100.00;99414.19;5102306;28;20375;-62
2023/12/27 05:43:37;;;;;;;10.32;5.90;;;;;;;6.94;100.00;99415.88;5105961;28;20027;-63
2023/12/27 05:46:03;;;;;;;12.15;6.38;;;;;;;6.89;100.00;99417.34;5104136;28;20043;-62
2023/12/27 05:48:28;;;;;;;12.43;6.20;;;;;;;6.87;100.00;99408.63;5109160;28;20467;-63
2023/12/27 05:50:59;;;;;;;10.82;5.90;;;;;;;6.86;100.00;99407.75;5103015;28;20028;-63
2023/12/27 05:53:25;;;;;;;10.85;6.05;;;;;;;6.76;100.00;99399.88;5097045;28;20035;-63
2023/12/27 05:55:50;;;;;;;8.82;5.53;;;;;;;6.62;100.00;99387.03;5101926;28;20478;-62
2023/12/27 05:58:16;;;;;;;9.45;5.53;;;;;;;6.46;100.00;99379.75;5104264;28;20024;-63
2023/12/27 06:00:41;;;;;;;10.82;5.05;;;;;;;6.36;100.00;99377.19;5091117;28;20035;-62
2023/12/27 06:03:06;;;;;;;10.40;4.88;;;;;;;6.28;100.00;99377.16;5096828;28;20427;-61
2023/12/27 06:05:32;;;;;;;11.10;6.10;;;;;;;6.15;100.00;99366.88;5099574;28;20089;-61
2023/12/27 06:07:57;;;;;;;12.98;5.95;;;;;;;6.00;100.00;99364.94;5101325;28;20024;-61
2023/12/27 06:10:23;;;;;;;13.05;5.93;;;;;;;5.99;100.00;99366.78;5096133;28;20089;-61
2023/12/27 06:12:48;;;;;;;11.18;6.03;;;;;;;5.94;100.00;99374.50;5098388;28;20032;-62
2023/12/27 06:15:14;;;;;;;16.98;7.00;;;;;;;5.87;100.00;99370.75;5101503;28;20042;-61
2023/12/27 06:17:39;;;;;;;13.02;6.03;;;;;;;5.85;100.00;99368.22;5097353;28;20020;-61
2023/12/27 06:20:08;;;;;;;11.57;5.72;;;;;;;5.98;100.00;99377.72;5091237;28;20440;-61
2023/12/27 06:22:33;;;;;;;12.77;5.82;;;;;;;5.92;100.00;99371.94;5088733;28;20031;-61
2023/12/27 06:24:59;;;;;;;14.43;7.05;;;;;;;5.87;100.00;99370.75;5095860;28;20024;-61
2023/12/27 06:27:24;;;;;;;12.68;7.00;;;;;;;5.81;100.00;99356.09;5089169;28;20054;-61
2023/12/27 06:29:49;;;;;;;10.20;6.13;;;;;;;5.79;100.00;99344.69;5101390;28;20032;-61
2023/12/27 06:32:15;;;;;;;13.32;6.20;;;;;;;5.72;100.00;99331.06;5087721;28;20039;-61
2023/12/27 06:34:41;;;;;;;19.80;6.65;;;;;;;5.61;100.00;99311.72;5088211;28;20024;-61
2023/12/27 06:37:06;;;;;;;11.20;5.90;;;;;;;5.64;100.00;99325.63;5091310;28;20024;-60
2023/12/27 06:39:32;;;;;;;15.45;6.03;;;;;;;5.75;100.00;99337.94;5091732;28;20039;-61
2023/12/27 06:41:57;;;;;;;11.35;6.38;;;;;;;5.78;100.00;99334.94;5095407;28;20032;-61
2023/12/27 06:44:22;;;;;;;13.70;8.15;;;;;;;5.83;100.00;99361.31;5091503;28;20031;-62
2023/12/27 06:46:49;;;;;;;22.00;8.43;;;;;;;5.67;100.00;99370.13;5091649;28;20028;-61
2023/12/27 06:49:15;;;;;;;19.17;8.23;;;;;;;5.60;100.00;99374.41;5089486;28;20043;-61
2023/12/27 06:51:40;;;;;;;19.55;7.93;;;;;;;5.62;100.00;99370.59;5095331;28;20360;-60
2023/12/27 06:59:11;;;;;;;12.40;5.90;;;;;;;5.67;100.00;99373.63;3908102;22;20316;-75
2023/12/27 07:01:36;;;;;;;9.68;4.38;;;;;;;5.64;100.00;99354.34;5058092;28;20025;-75
2023/12/27 07:04:02;;;;;;;10.88;4.93;;;;;;;5.80;100.00;99373.22;5201344;23;20061;-56
2023/12/27 07:18:02;;;;;;;10.52;5.63;;;;;;;6.06;100.00;99383.13;3970211;22;20053;-59
2023/12/27 07:42:44;;;;;;;6.88;3.80;;;;;;;6.32;100.00;99367.78;5062033;28;20040;-55
2023/12/27 07:45:10;;;;;;;11.52;4.32;;;;;;;6.36;100.00;99369.13;5044728;28;20471;-55
2023/12/27 07:47:35;;;;;;;8.18;3.67;;;;;;;6.45;100.00;99369.19;5076007;28;20479;-55
2023/12/27 07:50:00;;;;;;;11.85;4.28;;;;;;;6.39;100.00;99354.53;5077063;28;20039;-55
2023/12/27 07:52:26;;;;;;;9.98;4.07;;;;;;;6.42;100.00;99366.81;5075233;28;20031;-55
2023/12/27 07:54:52;;;;;;;7.75;4.05;;;;;;;6.43;100.00;99363.13;5067824;28;20130;-55
2023/12/27 07:57:17;;;;;;;8.02;4.30;;;;;;;6.50;100.00;99380.31;5067760;28;20036;-55
2023/12/27 07:59:43;;;;;;;7.60;3.85;;;;;;;6.64;100.00;99381.50;5071348;28;20024;-55
2023/12/27 08:02:09;;;;;;;9.43;3.47;;;;;;;6.63;100.00;99375.28;5066875;28;20037;-55
2023/12/27 08:04:34;;;;;;;7.07;4.07;;;;;;;6.85;100.00;99371.13;5070958;28;20071;-55
2023/12/27 08:07:00;;;;;;;7.32;3.90;;;;;;;6.98;100.00;99367.97;5070335;28;20032;-56
2023/12/27 08:09:26;;;;;;;8.68;3.35;;;;;;;7.05;100.00;99354.66;5069159;28;20024;-55
2023/12/27 08:11:51;;;;;;;6.07;3.40;;;;;;;7.16;100.00;99355.19;5063851;28;20020;-56
2023/12/27 08:14:17;;;;;;;6.13;3.35;;;;;;;7.31;100.00;99354.50;5076773;28;20020;-55
2023/12/27 08:16:42;;;;;;;7.00;3.33;;;;;;;7.50;100.00;99354.16;5079684;28;20023;-56
2023/12/27 08:19:07;;;;;;;6.55;3.72;;;;;;;7.61;100.00;99352.97;5073934;28;20376;-56
2023/12/27 08:21:33;;;;;;;5.63;3.50;;;;;;;7.68;100.00;99344.03;5063991;28;20036;-55
2023/12/27 08:23:58;;;;;;;7.72;3.15;;;;;;;7.78;100.00;99348.38;5051359;28;20054;-55
2023/12/27 08:26:24;;;;;;;5.03;3.15;;;;;;;7.82;100.00;99355.13;5067070;28;20055;-55
2023/12/27 08:28:49;;;;;;;7.80;3.92;;;;;;;7.83;100.00;99348.72;5073767;28;20032;-55
2023/12/27 08:31:14;;;;;;;6.70;3.85;;;;;;;8.08;100.00;99347.63;5067599;28;20091;-55
2023/12/27 08:33:40;;;;;;;5.10;3.22;;;;;;;8.30;100.00;99342.47;5071653;28;20106;-56
2023/12/27 08:36:06;;;;;;;4.75;2.78;;;;;;;8.40;100.00;99336.91;5071510;28;20029;-55
2023/12/27 08:38:32;;;;;;;5.95;3.80;;;;;;;8.49;100.00;99338.56;5076083;28;20023;-55
2023/12/27 08:40:58;;;;;;;6.45;4.13;;;;;;;8.34;100.00;99330.34;5067704;28;20391;-55
2023/12/27 08:43:29;;;;;;;6.07;3.72;;;;;;;8.09;100.00;99321.50;5072761;28;20021;-55
2023/12/27 08:45:54;;;;;;;6.57;3.47;;;;;;;8.11;100.00;99314.94;5080997;28;20030;-55
2023/12/27 08:48:20;;;;;;;6.28;3.80;;;;;;;8.07;100.00;99327.09;5068986;28;20100;-55
2023/12/27 08:50:46;;;;;;;7.50;3.95;;;;;;;8.03;100.00;99325.75;5056098;28;20082;-55
2023/12/27 08:53:11;;;;;;;5.38;3.47;;;;;;;8.11;100.00;99320.31;5052916;28;20024;-55
2023/12/27 08:55:37;;;;;;;6.65;3.40;;;;;;;8.07;100.00;99316.31;5063637;28;20032;-55
2023/12/27 08:58:03;;;;;;;5.45;3.28;;;;;;;8.32;100.00;99302.72;5072421;28;20029;-56
2023/12/27 09:00:28;;;;;;;7.30;3.78;;;;;;;8.48;100.00;99280.25;5060218;28;20036;-55
2023/12/27 09:02:53;;;;;;;8.07;3.78;;;;;;;8.73;100.00;99280.94;5090185;28;20066;-55
2023/12/27 09:05:19;;;;;;;6.78;3.05;;;;;;;8.77;100.00;99264.19;5075427;28;20033;-52
2023/12/27 09:07:44;;;;;;;5.63;3.17;;;;;;;9.14;100.00;99264.38;5068439;28;20102;-55
2023/12/27 09:10:10;;;;;;;8.57;3.78;;;;;;;9.31;100.00;99259.69;5083531;28;20455;-55
2023/12/27 09:12:40;;;;;;;10.23;3.63;;;;;;;9.54;100.00;99227.22;5067677;28;20032;-56
2023/12/27 09:15:07;;;;;;;8.70;2.85;;;;;;;9.73;100.00;99242.84;5064234;28;20095;-56
2023/12/27 09:17:32;;;;;;;5.47;3.08;;;;;;;9.98;100.00;99245.22;5065638;28;20020;-55
2023/12/27 09:19:58;;;;;;;5.55;2.40;;;;;;;10.41;100.00;99237.25;5071218;28;20082;-55
2023/12/27 09:22:23;;;;;;;9.20;3.55;;;;;;;10.74;100.00;99241.13;5045869;28;20081;-56
2023/12/27 09:24:48;;;;;;;7.90;2.88;;;;;;;11.16;100.00;99238.56;5061713;28;20499;-56
2023/12/27 09:27:17;;;;;;;6.13;2.22;;;;;;;11.09;100.00;99238.50;5044516;28;20017;-56
2023/12/27 09:29:46;;;;;;;5.88;2.42;;;;;;;10.91;100.00;99238.16;5060272;28;20040;-55
2023/12/27 09:32:11;;;;;;;4.90;1.83;;;;;;;10.39;100.00;99233.91;5076219;28;20032;-55
2023/12/27 09:34:36;;;;;;;4.93;1.60;;;;;;;10.33;100.00;99234.66;5070348;28;20036;-56
2023/12/27 09:37:03;;;;;;;4.70;1.88;;;;;;;10.24;100.00;99226.66;5064505;28;20024;-56
2023/12/27 09:39:31;;;;;;;4.65;1.50;;;;;;;10.33;100.00;99242.78;5066333;28;20068;-56
2023/12/27 09:42:00;;;;;;;5.28;1.50;;;;;;;11.47;100.00;99235.44;5071514;28;20035;-55
2023/12/27 09:44:26;;;;;;;8.07;1.60;;;;;;;12.90;100.00;99222.00;5073588;28;20074;-55
2023/12/27 09:46:51;;;;;;;3.88;1.60;;;;;;;13.02;100.00;99209.50;5077022;28;20115;-53
2023/12/27 09:49:20;;;;;;;5.95;1.45;;;;;;;13.89;100.00;99202.03;5063429;28;20055;-53
2023/12/27 09:51:46;;;;;;;4.13;1.60;;;;;;;15.29;100.00;99215.59;5079481;28;20036;-54
2023/12/27 09:54:14;;;;;;;2.03;1.27;;;;;;;16.12;100.00;99216.22;5079573;28;20035;-53
2023/12/27 09:56:39;;;;;;;3.58;1.33;;;;;;;16.63;100.00;99209.41;5083179;28;20032;-54
2023/12/27 09:59:06;;;;;;;2.33;1.30;;;;;;;16.96;98.43;99210.84;5073038;28;20035;-54
2023/12/27 10:01:37;;;;;;;4.53;1.63;;;;;;;17.07;100.00;99204.53;5064156;28;20108;-53
2023/12/27 10:04:35;;;;;;;5.90;1.75;;;;;;;16.70;100.00;99212.88;5064667;28;20029;-53
2023/12/27 10:07:03;;;;;;;5.82;1.73;;;;;;;17.28;96.20;99209.44;5064711;28;20090;-53
2023/12/27 10:09:28;;;;;;;3.60;1.75;;;;;;;18.89;84.82;99205.13;5077503;28;20031;-53
2023/12/27 10:11:55;;;;;;;5.32;2.10;;;;;;;19.90;73.31;99213.28;5082913;28;20038;-53
2023/12/27 10:14:22;;;;;;;4.47;1.50;;;;;;;19.84;70.09;99214.31;5071963;28;20513;-55
2023/12/27 10:16:48;;;;;;;3.85;1.50;;;;;;;20.70;67.41;99212.88;5062003;28;20021;-56
2023/12/27 10:19:39;;;;;;;5.72;1.30;;;;;;;21.11;60.94;99199.47;5074161;28;20025;-56
2023/12/27 10:22:05;;;;;;;4.10;1.23;;;;;;;19.71;65.61;99198.19;5073128;28;20170;-56
2023/12/27 10:24:30;;;;;;;2.80;1.30;;;;;;;18.96;67.84;99181.09;5087218;28;20455;-56
2023/12/27 10:26:57;;;;;;;4.47;1.63;;;;;;;18.10;69.30;99178.44;5084033;28;20027;-53
2023/12/27 10:29:23;;;;;;;3.75;1.58;;;;;;;18.40;69.60;99171.88;5073906;28;20024;-53
2023/12/27 10:31:49;;;;;;;2.92;1.27;;;;;;;16.00;73.21;99167.00;5069301;28;20610;-53
2023/12/27 10:34:14;;;;;;;4.63;1.60;;;;;;;14.21;100.00;99153.13;5069340;28;20039;-53
2023/12/27 10:36:42;;;;;;;3.80;1.10;;;;;;;13.44;100.00;99146.72;5070970;28;20036;-53
2023/12/27 10:39:10;;;;;;;2.58;1.33;;;;;;;14.64;100.00;99145.09;5076163;28;20078;-53
2023/12/27 10:41:39;;;;;;;3.80;1.38;;;;;;;14.34;100.00;99136.69;5076950;28;20384;-53
2023/12/27 10:44:04;;;;;;;2.60;1.40;;;;;;;14.12;100.00;99133.50;5079851;28;20074;-53
2023/12/27 10:46:34;;;;;;;3.33;1.50;;;;;;;16.42;99.20;99142.47;5063392;28;20021;-54
2023/12/27 10:49:05;;;;;;;2.53;1.10;;;;;;;16.76;87.66;99143.63;5070691;28;20054;-53
2023/12/27 10:51:37;;;;;;;5.60;1.38;;;;;;;17.99;81.60;99127.25;5065838;28;20029;-53
2023/12/27 10:54:04;;;;;;;2.80;1.48;;;;;;;18.85;68.59;99110.75;5079183;28;20059;-56
2023/12/27 10:56:36;;;;;;;4.50;1.38;;;;;;;17.36;72.52;99123.47;5073222;28;20027;-53
2023/12/27 10:59:04;;;;;;;3.67;1.20;;;;;;;14.98;82.90;99126.56;5065975;28;20028;-53
2023/12/27 11:01:31;;;;;;;5.53;1.30;;;;;;;13.74;100.00;99130.75;5063583;28;20387;-54
2023/12/27 11:03:59;;;;;;;4.13;1.33;;;;;;;13.41;100.00;99130.84;5063908;28;20071;-60
2023/12/27 11:06:28;;;;;;;3.30;1.10;;;;;;;12.42;100.00;99144.31;5065151;28;20028;-61
2023/12/27 11:08:54;;;;;;;4.85;1.30;;;;;;;11.88;100.00;99137.06;5066485;28;20051;-61
2023/12/27 11:11:23;;;;;;;4.55;1.50;;;;;;;11.73;100.00;99120.94;5066615;28;20040;-61
2023/12/27 11:13:49;;;;;;;2.42;1.23;;;;;;;11.84;100.00;99127.63;5049996;28;20090;-61
2023/12/27 11:16:17;;;;;;;3.38;1.50;;;;;;;11.58;100.00;99123.81;5071221;28;20029;-61
2023/12/27 11:18:45;;;;;;;3.13;1.23;;;;;;;12.34;100.00;99117.38;5067238;28;20044;-61
2023/12/27 11:21:11;;;;;;;3.58;1.27;;;;;;;13.80;100.00;99094.53;5079568;28;20091;-60
2023/12/27 11:23:36;;;;;;;3.92;1.33;;;;;;;16.07;94.27;99098.69;5065702;28;20396;-60
2023/12/27 11:26:04;;;;;;;3.45;1.50;;;;;;;17.11;81.93;99093.66;5063996;28;20487;-60
2023/12/27 11:28:32;;;;;;;1.92;0.98;;;;;;;16.94;79.26;99087.25;5065937;28;20025;-60
2023/12/27 11:30:58;;;;;;;4.20;1.10;;;;;;;16.74;78.05;99082.09;5066937;28;20082;-60
2023/12/27 11:33:23;;;;;;;5.43;1.30;;;;;;;17.17;74.12;99087.22;5062940;28;20438;-57
2023/12/27 11:35:50;;;;;;;3.03;1.27;;;;;;;17.79;71.46;99080.28;5069026;28;20484;-57
2023/12/27 11:38:18;;;;;;;3.70;1.33;;;;;;;17.35;69.73;99069.03;5062868;28;20036;-58
2023/12/27 11:40:43;;;;;;;4.35;1.23;;;;;;;16.19;71.80;99064.91;5075798;28;20048;-62
2023/12/27 11:43:09;;;;;;;5.15;1.55;;;;;;;14.97;76.59;99070.41;5071274;28;20537;-61
2023/12/27 11:45:59;;;;;;;4.57;1.52;;;;;;;15.48;77.78;99068.38;5073766;28;20036;-61
2023/12/27 11:48:27;;;;;;;4.72;1.50;;;;;;;14.95;75.53;99055.34;5059062;28;20047;-61
2023/12/27 11:50:54;;;;;;;4.20;1.58;;;;;;;14.41;80.98;99058.56;5068438;28;20032;-61
2023/12/27 11:53:19;;;;;;;4.90;1.52;;;;;;;13.13;82.98;99055.88;5068166;28;20028;-61
2023/12/27 11:55:46;;;;;;;3.40;1.50;;;;;;;12.99;95.04;99049.63;5070403;28;20032;-61
2023/12/27 11:58:15;;;;;;;3.00;1.38;;;;;;;13.13;95.40;99055.88;5065346;28;20043;-61
2023/12/27 12:00:41;;;;;;;3.30;1.30;;;;;;;12.94;96.09;99047.59;5066740;28;20495;-62
2023/12/27 12:03:20;;;;;;;5.00;1.50;;;;;;;13.56;96.74;99033.56;5070737;28;20025;-62